sensor_id;sensor_type;location;lat;lon;timestamp;P1;durP1;ratioP1;P2;durP2;ratioP2
28802;SDS011;15949;55.656;37.422;2023-02-26T00:03:29;78.43;;;41.17;;
28802;SDS011;15949;55.656;37.422;2023-02-26T00:08:35;70.88;;;38.28;;
28802;SDS011;15949;55.656;37.422;2023-02-26T00:13:41;66.53;;;36.00;;
28802;SDS011;15949;55.656;37.422;2023-02-26T00:18:48;59.42;;;32.22;;
28802;SDS011;15949;55.656;37.422;2023-02-26T00:23:54;49.35;;;29.00;;
28802;SDS011;15949;55.656;37.422;2023-02-26T00:29:01;45.05;;;27.33;;
28802;SDS011;15949;55.656;37.422;2023-02-26T00:34:10;45.13;;;25.20;;
28802;SDS011;15949;55.656;37.422;2023-02-26T00:44:41;30.77;;;18.70;;
28802;SDS011;15949;55.656;37.422;2023-02-26T00:55:21;26.60;;;15.73;;
28802;SDS011;15949;55.656;37.422;2023-02-26T01:00:26;23.25;;;14.43;;
28802;SDS011;15949;55.656;37.422;2023-02-26T01:05:32;20.55;;;13.23;;
28802;SDS011;15949;55.656;37.422;2023-02-26T01:10:39;22.50;;;12.98;;
28802;SDS011;15949;55.656;37.422;2023-02-26T01:15:47;20.10;;;12.52;;
28802;SDS011;15949;55.656;37.422;2023-02-26T01:20:57;16.10;;;11.30;;
28802;SDS011;15949;55.656;37.422;2023-02-26T01:26:20;16.05;;;11.13;;
28802;SDS011;15949;55.656;37.422;2023-02-26T01:31:38;16.30;;;10.60;;
28802;SDS011;15949;55.656;37.422;2023-02-26T01:37:04;16.58;;;10.38;;
28802;SDS011;15949;55.656;37.422;2023-02-26T01:42:20;14.90;;;10.48;;
28802;SDS011;15949;55.656;37.422;2023-02-26T01:57:53;12.52;;;8.52;;
28802;SDS011;15949;55.656;37.422;2023-02-26T02:03:01;16.30;;;9.67;;
28802;SDS011;15949;55.656;37.422;2023-02-26T02:08:08;14.48;;;9.85;;
28802;SDS011;15949;55.656;37.422;2023-02-26T02:29:32;15.35;;;9.82;;
28802;SDS011;15949;55.656;37.422;2023-02-26T02:35:19;12.80;;;9.55;;
28802;SDS011;15949;55.656;37.422;2023-02-26T02:40:38;11.85;;;8.23;;
28802;SDS011;15949;55.656;37.422;2023-02-26T02:50:57;8.00;;;6.38;;
28802;SDS011;15949;55.656;37.422;2023-02-26T03:01:17;7.40;;;5.93;;
28802;SDS011;15949;55.656;37.422;2023-02-26T03:06:25;10.70;;;6.20;;
28802;SDS011;15949;55.656;37.422;2023-02-26T03:11:32;8.48;;;6.47;;
28802;SDS011;15949;55.656;37.422;2023-02-26T03:22:38;11.40;;;8.25;;
28802;SDS011;15949;55.656;37.422;2023-02-26T03:43:47;15.05;;;10.70;;
28802;SDS011;15949;55.656;37.422;2023-02-26T03:48:58;13.32;;;10.13;;
28802;SDS011;15949;55.656;37.422;2023-02-26T03:54:25;13.25;;;10.57;;
28802;SDS011;15949;55.656;37.422;2023-02-26T03:59:35;13.15;;;10.45;;
28802;SDS011;15949;55.656;37.422;2023-02-26T04:09:52;14.70;;;10.68;;
28802;SDS011;15949;55.656;37.422;2023-02-26T04:14:58;10.75;;;8.80;;
28802;SDS011;15949;55.656;37.422;2023-02-26T04:20:04;13.23;;;8.77;;
28802;SDS011;15949;55.656;37.422;2023-02-26T04:25:16;13.60;;;9.57;;
28802;SDS011;15949;55.656;37.422;2023-02-26T04:30:23;10.48;;;8.57;;
28802;SDS011;15949;55.656;37.422;2023-02-26T04:35:28;13.20;;;8.90;;
28802;SDS011;15949;55.656;37.422;2023-02-26T04:40:34;9.95;;;7.35;;
28802;SDS011;15949;55.656;37.422;2023-02-26T04:45:40;12.13;;;8.50;;
28802;SDS011;15949;55.656;37.422;2023-02-26T04:50:46;7.57;;;5.40;;
28802;SDS011;15949;55.656;37.422;2023-02-26T04:55:51;5.38;;;4.20;;
28802;SDS011;15949;55.656;37.422;2023-02-26T05:00:57;5.45;;;4.13;;
28802;SDS011;15949;55.656;37.422;2023-02-26T05:06:03;5.97;;;4.10;;
28802;SDS011;15949;55.656;37.422;2023-02-26T05:11:09;3.67;;;3.00;;
28802;SDS011;15949;55.656;37.422;2023-02-26T05:16:16;3.70;;;2.83;;
28802;SDS011;15949;55.656;37.422;2023-02-26T05:21:22;3.58;;;2.67;;
28802;SDS011;15949;55.656;37.422;2023-02-26T05:26:27;3.47;;;2.53;;
28802;SDS011;15949;55.656;37.422;2023-02-26T05:31:33;4.47;;;2.20;;
28802;SDS011;15949;55.656;37.422;2023-02-26T05:36:39;3.30;;;2.10;;
28802;SDS011;15949;55.656;37.422;2023-02-26T05:41:45;2.03;;;1.70;;
28802;SDS011;15949;55.656;37.422;2023-02-26T05:46:51;3.42;;;1.60;;
28802;SDS011;15949;55.656;37.422;2023-02-26T05:51:57;1.80;;;1.65;;
28802;SDS011;15949;55.656;37.422;2023-02-26T05:57:02;2.30;;;1.80;;
28802;SDS011;15949;55.656;37.422;2023-02-26T06:02:08;3.58;;;1.85;;
28802;SDS011;15949;55.656;37.422;2023-02-26T06:07:14;2.10;;;1.63;;
28802;SDS011;15949;55.656;37.422;2023-02-26T06:12:19;2.08;;;1.80;;
28802;SDS011;15949;55.656;37.422;2023-02-26T06:17:25;3.63;;;1.83;;
28802;SDS011;15949;55.656;37.422;2023-02-26T06:22:32;2.22;;;2.00;;
28802;SDS011;15949;55.656;37.422;2023-02-26T06:27:37;2.33;;;1.90;;
28802;SDS011;15949;55.656;37.422;2023-02-26T06:32:43;2.25;;;2.03;;
28802;SDS011;15949;55.656;37.422;2023-02-26T06:37:49;2.50;;;2.08;;
28802;SDS011;15949;55.656;37.422;2023-02-26T06:42:55;2.85;;;2.00;;
28802;SDS011;15949;55.656;37.422;2023-02-26T06:48:01;3.00;;;2.03;;
28802;SDS011;15949;55.656;37.422;2023-02-26T06:53:07;4.10;;;2.20;;
28802;SDS011;15949;55.656;37.422;2023-02-26T06:58:13;2.92;;;2.45;;
28802;SDS011;15949;55.656;37.422;2023-02-26T07:03:19;4.60;;;2.47;;
28802;SDS011;15949;55.656;37.422;2023-02-26T07:08:25;3.92;;;2.60;;
28802;SDS011;15949;55.656;37.422;2023-02-26T07:13:31;3.80;;;2.78;;
28802;SDS011;15949;55.656;37.422;2023-02-26T07:18:36;3.80;;;2.85;;
28802;SDS011;15949;55.656;37.422;2023-02-26T07:23:42;2.60;;;2.40;;
28802;SDS011;15949;55.656;37.422;2023-02-26T07:28:48;5.85;;;2.95;;
28802;SDS011;15949;55.656;37.422;2023-02-26T07:33:54;3.72;;;2.58;;
28802;SDS011;15949;55.656;37.422;2023-02-26T07:38:59;6.00;;;2.70;;
28802;SDS011;15949;55.656;37.422;2023-02-26T07:44:05;3.72;;;2.00;;
28802;SDS011;15949;55.656;37.422;2023-02-26T07:49:11;3.03;;;2.38;;
28802;SDS011;15949;55.656;37.422;2023-02-26T07:54:17;3.00;;;2.22;;
28802;SDS011;15949;55.656;37.422;2023-02-26T07:59:22;2.30;;;2.10;;
28802;SDS011;15949;55.656;37.422;2023-02-26T08:04:28;3.05;;;2.38;;
28802;SDS011;15949;55.656;37.422;2023-02-26T08:09:35;2.78;;;2.13;;
28802;SDS011;15949;55.656;37.422;2023-02-26T08:14:41;5.35;;;1.77;;
28802;SDS011;15949;55.656;37.422;2023-02-26T08:19:46;2.35;;;1.60;;
28802;SDS011;15949;55.656;37.422;2023-02-26T08:24:52;5.47;;;1.60;;
28802;SDS011;15949;55.656;37.422;2023-02-26T08:29:58;2.65;;;1.60;;
28802;SDS011;15949;55.656;37.422;2023-02-26T08:35:04;1.85;;;1.48;;
28802;SDS011;15949;55.656;37.422;2023-02-26T08:40:10;2.20;;;1.38;;
28802;SDS011;15949;55.656;37.422;2023-02-26T08:45:16;1.70;;;1.30;;
28802;SDS011;15949;55.656;37.422;2023-02-26T08:50:22;1.85;;;1.50;;
28802;SDS011;15949;55.656;37.422;2023-02-26T08:55:28;1.70;;;1.27;;
28802;SDS011;15949;55.656;37.422;2023-02-26T09:00:34;4.60;;;2.13;;
28802;SDS011;15949;55.656;37.422;2023-02-26T09:05:40;1.50;;;1.30;;
28802;SDS011;15949;55.656;37.422;2023-02-26T09:10:45;1.85;;;1.35;;
28802;SDS011;15949;55.656;37.422;2023-02-26T09:15:51;2.42;;;1.30;;
28802;SDS011;15949;55.656;37.422;2023-02-26T09:20:57;1.35;;;1.20;;
28802;SDS011;15949;55.656;37.422;2023-02-26T09:26:03;2.08;;;1.27;;
28802;SDS011;15949;55.656;37.422;2023-02-26T09:31:09;1.45;;;1.30;;
28802;SDS011;15949;55.656;37.422;2023-02-26T09:36:14;2.65;;;1.50;;
28802;SDS011;15949;55.656;37.422;2023-02-26T09:41:25;1.67;;;1.30;;
28802;SDS011;15949;55.656;37.422;2023-02-26T09:46:39;1.75;;;1.30;;
28802;SDS011;15949;55.656;37.422;2023-02-26T09:57:29;2.10;;;1.63;;
28802;SDS011;15949;55.656;37.422;2023-02-26T10:02:48;2.63;;;1.70;;
28802;SDS011;15949;55.656;37.422;2023-02-26T10:08:22;2.53;;;1.80;;
28802;SDS011;15949;55.656;37.422;2023-02-26T10:18:58;2.40;;;1.70;;
28802;SDS011;15949;55.656;37.422;2023-02-26T10:24:11;2.55;;;2.00;;
28802;SDS011;15949;55.656;37.422;2023-02-26T10:29:24;2.72;;;1.75;;
28802;SDS011;15949;55.656;37.422;2023-02-26T10:34:55;4.60;;;2.83;;
28802;SDS011;15949;55.656;37.422;2023-02-26T10:50:32;2.47;;;1.63;;
28802;SDS011;15949;55.656;37.422;2023-02-26T10:55:42;2.55;;;1.85;;
28802;SDS011;15949;55.656;37.422;2023-02-26T11:00:52;2.40;;;1.90;;
28802;SDS011;15949;55.656;37.422;2023-02-26T11:06:00;1.70;;;1.40;;
28802;SDS011;15949;55.656;37.422;2023-02-26T11:11:08;3.25;;;1.67;;
28802;SDS011;15949;55.656;37.422;2023-02-26T11:16:14;4.07;;;2.75;;
28802;SDS011;15949;55.656;37.422;2023-02-26T11:21:25;2.90;;;2.30;;
28802;SDS011;15949;55.656;37.422;2023-02-26T11:26:35;2.00;;;1.70;;
28802;SDS011;15949;55.656;37.422;2023-02-26T11:31:42;2.40;;;1.80;;
28802;SDS011;15949;55.656;37.422;2023-02-26T11:36:47;2.80;;;1.80;;
28802;SDS011;15949;55.656;37.422;2023-02-26T11:41:57;2.92;;;1.88;;
28802;SDS011;15949;55.656;37.422;2023-02-26T11:47:09;3.90;;;1.73;;
28802;SDS011;15949;55.656;37.422;2023-02-26T11:52:22;2.50;;;1.90;;
28802;SDS011;15949;55.656;37.422;2023-02-26T11:57:33;4.05;;;1.67;;
28802;SDS011;15949;55.656;37.422;2023-02-26T12:02:39;2.40;;;1.98;;
28802;SDS011;15949;55.656;37.422;2023-02-26T12:07:44;3.05;;;2.08;;
28802;SDS011;15949;55.656;37.422;2023-02-26T12:45:32;3.83;;;2.72;;
28802;SDS011;15949;55.656;37.422;2023-02-26T13:01:33;7.43;;;3.95;;
28802;SDS011;15949;55.656;37.422;2023-02-26T13:06:52;5.47;;;3.70;;
28802;SDS011;15949;55.656;37.422;2023-02-26T13:12:18;7.60;;;4.00;;
28802;SDS011;15949;55.656;37.422;2023-02-26T13:33:44;6.68;;;5.20;;
28802;SDS011;15949;55.656;37.422;2023-02-26T13:39:03;9.45;;;6.05;;
28802;SDS011;15949;55.656;37.422;2023-02-26T13:55:35;7.97;;;6.20;;
28802;SDS011;15949;55.656;37.422;2023-02-26T14:00:45;10.70;;;6.50;;
28802;SDS011;15949;55.656;37.422;2023-02-26T14:05:54;11.25;;;6.65;;
28802;SDS011;15949;55.656;37.422;2023-02-26T14:16:54;10.95;;;7.00;;
28802;SDS011;15949;55.656;37.422;2023-02-26T14:22:19;11.63;;;7.90;;
28802;SDS011;15949;55.656;37.422;2023-02-26T14:27:36;9.63;;;7.35;;
28802;SDS011;15949;55.656;37.422;2023-02-26T14:38:01;10.95;;;7.43;;
28802;SDS011;15949;55.656;37.422;2023-02-26T14:43:12;11.15;;;7.95;;
28802;SDS011;15949;55.656;37.422;2023-02-26T14:48:25;14.00;;;8.93;;
28802;SDS011;15949;55.656;37.422;2023-02-26T15:20:46;12.93;;;9.27;;
28802;SDS011;15949;55.656;37.422;2023-02-26T15:26:03;13.60;;;9.52;;
28802;SDS011;15949;55.656;37.422;2023-02-26T15:31:11;16.23;;;10.27;;
28802;SDS011;15949;55.656;37.422;2023-02-26T15:36:18;19.08;;;10.82;;
28802;SDS011;15949;55.656;37.422;2023-02-26T15:41:26;18.52;;;11.18;;
28802;SDS011;15949;55.656;37.422;2023-02-26T15:46:35;14.55;;;10.45;;
28802;SDS011;15949;55.656;37.422;2023-02-26T15:51:43;15.30;;;10.30;;
28802;SDS011;15949;55.656;37.422;2023-02-26T15:56:49;16.27;;;11.02;;
28802;SDS011;15949;55.656;37.422;2023-02-26T16:01:55;14.52;;;9.40;;
28802;SDS011;15949;55.656;37.422;2023-02-26T16:07:01;16.80;;;10.02;;
28802;SDS011;15949;55.656;37.422;2023-02-26T16:12:09;18.52;;;11.48;;
28802;SDS011;15949;55.656;37.422;2023-02-26T16:17:23;17.42;;;11.40;;
28802;SDS011;15949;55.656;37.422;2023-02-26T16:22:37;16.27;;;11.05;;
28802;SDS011;15949;55.656;37.422;2023-02-26T16:28:04;17.98;;;11.13;;
28802;SDS011;15949;55.656;37.422;2023-02-26T16:33:16;16.77;;;10.95;;
28802;SDS011;15949;55.656;37.422;2023-02-26T16:43:53;15.90;;;9.95;;
28802;SDS011;15949;55.656;37.422;2023-02-26T16:49:09;14.18;;;9.68;;
28802;SDS011;15949;55.656;37.422;2023-02-26T16:54:20;16.17;;;10.60;;
28802;SDS011;15949;55.656;37.422;2023-02-26T16:59:31;14.35;;;10.30;;
28802;SDS011;15949;55.656;37.422;2023-02-26T17:04:40;16.88;;;10.20;;
28802;SDS011;15949;55.656;37.422;2023-02-26T17:09:47;15.90;;;9.98;;
28802;SDS011;15949;55.656;37.422;2023-02-26T17:14:55;13.57;;;9.25;;
28802;SDS011;15949;55.656;37.422;2023-02-26T17:20:02;13.50;;;9.20;;
28802;SDS011;15949;55.656;37.422;2023-02-26T17:25:14;13.90;;;9.32;;
28802;SDS011;15949;55.656;37.422;2023-02-26T17:30:22;14.52;;;9.10;;
28802;SDS011;15949;55.656;37.422;2023-02-26T17:35:28;13.07;;;8.68;;
28802;SDS011;15949;55.656;37.422;2023-02-26T17:40:35;14.88;;;8.85;;
28802;SDS011;15949;55.656;37.422;2023-02-26T17:45:42;13.13;;;8.68;;
28802;SDS011;15949;55.656;37.422;2023-02-26T17:55:58;11.55;;;7.88;;
28802;SDS011;15949;55.656;37.422;2023-02-26T18:01:04;12.48;;;7.72;;
28802;SDS011;15949;55.656;37.422;2023-02-26T18:06:13;12.52;;;8.30;;
28802;SDS011;15949;55.656;37.422;2023-02-26T18:16:30;13.77;;;8.30;;
28802;SDS011;15949;55.656;37.422;2023-02-26T18:21:41;10.82;;;7.47;;
28802;SDS011;15949;55.656;37.422;2023-02-26T18:26:46;14.05;;;8.18;;
28802;SDS011;15949;55.656;37.422;2023-02-26T18:31:52;10.52;;;7.50;;
28802;SDS011;15949;55.656;37.422;2023-02-26T18:36:57;11.88;;;8.02;;
28802;SDS011;15949;55.656;37.422;2023-02-26T18:42:03;10.73;;;7.05;;
28802;SDS011;15949;55.656;37.422;2023-02-26T18:47:09;11.20;;;7.05;;
28802;SDS011;15949;55.656;37.422;2023-02-26T18:52:15;13.10;;;7.43;;
28802;SDS011;15949;55.656;37.422;2023-02-26T18:57:21;9.27;;;6.40;;
28802;SDS011;15949;55.656;37.422;2023-02-26T19:02:27;11.15;;;6.82;;
28802;SDS011;15949;55.656;37.422;2023-02-26T19:07:32;11.02;;;6.40;;
28802;SDS011;15949;55.656;37.422;2023-02-26T19:12:38;10.13;;;6.07;;
28802;SDS011;15949;55.656;37.422;2023-02-26T19:17:44;9.27;;;6.13;;
28802;SDS011;15949;55.656;37.422;2023-02-26T19:22:50;8.98;;;6.35;;
28802;SDS011;15949;55.656;37.422;2023-02-26T19:27:55;8.25;;;5.68;;
28802;SDS011;15949;55.656;37.422;2023-02-26T19:33:02;9.10;;;6.03;;
28802;SDS011;15949;55.656;37.422;2023-02-26T19:38:07;8.55;;;5.75;;
28802;SDS011;15949;55.656;37.422;2023-02-26T19:43:14;9.35;;;5.78;;
28802;SDS011;15949;55.656;37.422;2023-02-26T19:48:20;8.05;;;6.00;;
28802;SDS011;15949;55.656;37.422;2023-02-26T19:53:26;8.02;;;5.35;;
28802;SDS011;15949;55.656;37.422;2023-02-26T19:58:32;8.45;;;6.20;;
28802;SDS011;15949;55.656;37.422;2023-02-26T20:03:38;8.82;;;5.93;;
28802;SDS011;15949;55.656;37.422;2023-02-26T20:08:44;9.25;;;6.20;;
28802;SDS011;15949;55.656;37.422;2023-02-26T20:13:50;8.13;;;5.78;;
28802;SDS011;15949;55.656;37.422;2023-02-26T20:18:55;9.18;;;5.95;;
28802;SDS011;15949;55.656;37.422;2023-02-26T20:24:01;10.13;;;5.78;;
28802;SDS011;15949;55.656;37.422;2023-02-26T20:29:06;8.35;;;5.80;;
28802;SDS011;15949;55.656;37.422;2023-02-26T20:34:13;9.75;;;5.65;;
28802;SDS011;15949;55.656;37.422;2023-02-26T20:39:18;8.35;;;5.60;;
28802;SDS011;15949;55.656;37.422;2023-02-26T20:44:25;7.00;;;4.80;;
28802;SDS011;15949;55.656;37.422;2023-02-26T20:49:31;7.90;;;5.10;;
28802;SDS011;15949;55.656;37.422;2023-02-26T20:54:36;7.68;;;5.18;;
28802;SDS011;15949;55.656;37.422;2023-02-26T20:59:42;7.45;;;5.22;;
28802;SDS011;15949;55.656;37.422;2023-02-26T21:04:47;7.70;;;5.32;;
28802;SDS011;15949;55.656;37.422;2023-02-26T21:09:53;7.53;;;4.82;;
28802;SDS011;15949;55.656;37.422;2023-02-26T21:14:59;7.75;;;5.20;;
28802;SDS011;15949;55.656;37.422;2023-02-26T21:20:05;6.80;;;4.68;;
28802;SDS011;15949;55.656;37.422;2023-02-26T21:25:12;7.57;;;5.10;;
28802;SDS011;15949;55.656;37.422;2023-02-26T21:30:18;6.90;;;4.97;;
28802;SDS011;15949;55.656;37.422;2023-02-26T21:35:24;7.20;;;4.63;;
28802;SDS011;15949;55.656;37.422;2023-02-26T21:40:30;6.95;;;5.07;;
28802;SDS011;15949;55.656;37.422;2023-02-26T21:45:36;8.43;;;5.25;;
28802;SDS011;15949;55.656;37.422;2023-02-26T21:50:42;8.07;;;4.63;;
28802;SDS011;15949;55.656;37.422;2023-02-26T21:55:48;7.43;;;4.53;;
28802;SDS011;15949;55.656;37.422;2023-02-26T22:00:56;8.20;;;5.32;;
28802;SDS011;15949;55.656;37.422;2023-02-26T22:06:03;7.32;;;5.00;;
28802;SDS011;15949;55.656;37.422;2023-02-26T22:11:09;7.55;;;4.78;;
28802;SDS011;15949;55.656;37.422;2023-02-26T22:16:15;7.65;;;5.40;;
28802;SDS011;15949;55.656;37.422;2023-02-26T22:21:21;7.35;;;5.13;;
28802;SDS011;15949;55.656;37.422;2023-02-26T22:26:29;8.98;;;5.00;;
28802;SDS011;15949;55.656;37.422;2023-02-26T22:31:35;6.95;;;5.22;;
28802;SDS011;15949;55.656;37.422;2023-02-26T22:36:41;7.43;;;4.90;;
28802;SDS011;15949;55.656;37.422;2023-02-26T22:41:47;8.45;;;4.80;;
28802;SDS011;15949;55.656;37.422;2023-02-26T22:46:52;7.07;;;5.05;;
28802;SDS011;15949;55.656;37.422;2023-02-26T22:51:58;7.53;;;5.05;;
28802;SDS011;15949;55.656;37.422;2023-02-26T22:57:04;8.18;;;5.25;;
28802;SDS011;15949;55.656;37.422;2023-02-26T23:02:10;7.03;;;5.10;;
28802;SDS011;15949;55.656;37.422;2023-02-26T23:07:16;7.53;;;5.50;;
28802;SDS011;15949;55.656;37.422;2023-02-26T23:12:22;10.38;;;5.70;;
28802;SDS011;15949;55.656;37.422;2023-02-26T23:17:27;8.82;;;5.72;;
28802;SDS011;15949;55.656;37.422;2023-02-26T23:22:33;9.38;;;5.75;;
28802;SDS011;15949;55.656;37.422;2023-02-26T23:27:38;7.97;;;5.50;;
28802;SDS011;15949;55.656;37.422;2023-02-26T23:32:44;9.88;;;5.03;;
28802;SDS011;15949;55.656;37.422;2023-02-26T23:37:50;8.98;;;5.90;;
28802;SDS011;15949;55.656;37.422;2023-02-26T23:42:55;8.55;;;5.65;;
28802;SDS011;15949;55.656;37.422;2023-02-26T23:48:01;30.38;;;16.90;;
28802;SDS011;15949;55.656;37.422;2023-02-26T23:53:07;7.72;;;4.97;;
28802;SDS011;15949;55.656;37.422;2023-02-26T23:58:12;11.40;;;5.55;;
